Terminal Aerodrome Forecast
Issued by NWS Jacksonville, FL

Home | Current Version | Previous Version | Text Only | Print | Product List | Glossary On
Versions: 1 2 3 4 5 6 7 8 9 10 11 12 13 14 15 16 17 18 19 20 21 22 23 24 25 26
000
FTUS42 KJAX 281142
TAFGNV
TAF
KGNV 281142Z 2812/0112 04007KT P6SM VCSH OVC015 WS015/05035KT
     FM281400 04011G16KT P6SM -RA SCT007 OVC015 WS015/05035KT
     FM281600 04012G18KT 4SM -RA BR BKN007 OVC015
      TEMPO 2816/2820 3SM RA SCT004 OVC007
     FM010000 03009KT 5SM -RA BR SCT004 OVC007
     FM010600 03006KT 6SM -DZ BR OVC004=

USA.gov is the U.S. government's official web portal to all federal, state and local government web resources and services.